PWSweather.com
Personal Weather Stations
Station Observations
SHAHALMS1
Eftra, Falkenberg, HA

EftraFalkenberg, HA

Lat: 56.85, Lon: 12.65

Elevation: 140

Station Type:

http://hem.passagen.se/risarp101

High Low Average
Temperature 60.1°F15.6°C 55.0°F12.8°C 57.0°F13.9°C
Dew Point 56.4°F13.6°C 42.2°F5.7°C 48.8°F9.3°C
Winds 30.6 mph 49.2 kmh 4.7 mph 7.6 kmh 12.0 mph WSW19.3 kmh WSW
Wind Gusts 41.5 mph66.8 kmh 5.7 mph9.2 kmh 17.0 mph27.4 kmh
Humidity 93% 58% 75%
Pressure 30.12 in1020.0 mb 29.77 in1008.1 mb -
Precipitation 0.14 in3.6 mm - -
Hour Temp Dew Point Humidity Winds Wind Gusts Pressure Precip Precip Rate Daily Precip Total
12:00 AM 57.2°F14.0°C 49.0°F9.4°C 74% 16.6 mph W26.7 kmh W 20.4 mph32.8 kmh 30.12 in1020.0 mb 0.00 in0.0 mm 0.00 in0.0 mm 0.00 in0.0 mm
12:10 AM 57.2°F14.0°C 49.0°F9.4°C 74% 19.3 mph WSW31.1 kmh WSW 37.9 mph61.0 kmh 30.09 in1019.0 mb 0.00 in0.0 mm 0.00 in0.0 mm 0.00 in0.0 mm
12:20 AM 57.2°F14.0°C 50.1°F10.1°C 77% 7.4 mph WSW11.9 kmh WSW 10.4 mph16.7 kmh 30.09 in1019.0 mb 0.00 in0.0 mm 0.00 in0.0 mm 0.00 in0.0 mm
12:30 AM 57.0°F13.9°C 50.6°F10.3°C 79% 12.8 mph WSW20.6 kmh WSW 30.8 mph49.6 kmh 30.07 in1018.3 mb 0.00 in0.0 mm 0.00 in0.0 mm 0.00 in0.0 mm
12:40 AM 56.7°F13.7°C 50.9°F10.5°C 81% 14.9 mph SE24.0 kmh SE 20.8 mph33.5 kmh 30.07 in1018.3 mb 0.00 in0.0 mm 0.00 in0.0 mm 0.00 in0.0 mm
12:50 AM 56.7°F13.7°C 51.2°F10.7°C 82% 14.9 mph S24.0 kmh S 20.8 mph33.5 kmh 30.07 in1018.3 mb 0.00 in0.0 mm 0.00 in0.0 mm 0.00 in0.0 mm
01:00 AM 56.7°F13.7°C 51.9°F11.1°C 84% 12.2 mph S19.6 kmh S 15.0 mph24.1 kmh 30.07 in1018.3 mb 0.00 in0.0 mm 0.00 in0.0 mm 0.00 in0.0 mm
01:10 AM 56.8°F13.8°C 52.1°F11.2°C 84% 14.3 mph S23.0 kmh S 21.1 mph34.0 kmh 30.07 in1018.3 mb 0.00 in0.0 mm 0.00 in0.0 mm 0.00 in0.0 mm
01:20 AM 56.8°F13.8°C 52.4°F11.3°C 85% 16.6 mph S26.7 kmh S 21.1 mph34.0 kmh 30.07 in1018.3 mb 0.00 in0.0 mm 0.00 in0.0 mm 0.00 in0.0 mm
01:30 AM 56.8°F13.8°C 52.7°F11.5°C 86% 9.3 mph SW15.0 kmh SW 12.9 mph20.8 kmh 30.04 in1017.3 mb 0.00 in0.0 mm 0.00 in0.0 mm 0.00 in0.0 mm
01:40 AM 56.8°F13.8°C 52.7°F11.5°C 86% 10.0 mph S16.1 kmh S 16.1 mph25.9 kmh 30.01 in1016.3 mb 0.00 in0.0 mm 0.00 in0.0 mm 0.00 in0.0 mm
01:50 AM 56.7°F13.7°C 52.5°F11.4°C 86% 11.7 mph S18.8 kmh S 16.1 mph25.9 kmh 30.01 in1016.3 mb 0.00 in0.0 mm 0.00 in0.0 mm 0.00 in0.0 mm
02:00 AM 56.8°F13.8°C 53.0°F11.7°C 87% 7.0 mph S11.3 kmh S 8.6 mph13.8 kmh 30.04 in1017.3 mb 0.00 in0.0 mm 0.00 in0.0 mm 0.00 in0.0 mm
02:10 AM 57.0°F13.9°C 53.2°F11.8°C 87% 12.2 mph SW19.6 kmh SW 26.1 mph42.0 kmh 30.01 in1016.3 mb 0.00 in0.0 mm 0.00 in0.0 mm 0.00 in0.0 mm
02:20 AM 57.0°F13.9°C 52.9°F11.6°C 86% 14.3 mph SW23.0 kmh SW 26.1 mph42.0 kmh 30.01 in1016.3 mb 0.00 in0.0 mm 0.00 in0.0 mm 0.00 in0.0 mm
02:30 AM 57.2°F14.0°C 52.7°F11.5°C 85% 11.9 mph SW19.2 kmh SW 17.5 mph28.2 kmh 29.98 in1015.2 mb 0.00 in0.0 mm 0.00 in0.0 mm 0.00 in0.0 mm
02:40 AM 57.2°F14.0°C 52.7°F11.5°C 85% 9.7 mph WSW15.6 kmh WSW 19.7 mph31.7 kmh 29.98 in1015.2 mb 0.00 in0.0 mm 0.00 in0.0 mm 0.00 in0.0 mm
02:50 AM 57.4°F14.1°C 52.9°F11.6°C 85% 15.2 mph SW24.5 kmh SW 24.7 mph39.8 kmh 29.98 in1015.2 mb 0.00 in0.0 mm 0.00 in0.0 mm 0.00 in0.0 mm
03:00 AM 57.6°F14.2°C 53.1°F11.7°C 85% 15.4 mph W24.8 kmh W 24.7 mph39.8 kmh 29.95 in1014.2 mb 0.00 in0.0 mm 0.00 in0.0 mm 0.00 in0.0 mm
03:10 AM 57.7°F14.3°C 53.3°F11.8°C 85% 14.5 mph SSW23.3 kmh SSW 24.7 mph39.8 kmh 29.95 in1014.2 mb 0.00 in0.0 mm 0.00 in0.0 mm 0.00 in0.0 mm
03:20 AM 57.7°F14.3°C 52.9°F11.6°C 84% 12.7 mph WSW20.4 kmh WSW 24.7 mph39.8 kmh 29.95 in1014.2 mb 0.00 in0.0 mm 0.00 in0.0 mm 0.00 in0.0 mm
03:30 AM 57.7°F14.3°C 52.9°F11.6°C 84% 13.8 mph SW22.2 kmh SW 20.8 mph33.5 kmh 29.95 in1014.2 mb 0.00 in0.0 mm 0.00 in0.0 mm 0.00 in0.0 mm
03:40 AM 57.7°F14.3°C 52.9°F11.6°C 84% 16.6 mph W26.7 kmh W 24.3 mph39.1 kmh 29.95 in1014.2 mb 0.00 in0.0 mm 0.00 in0.0 mm 0.00 in0.0 mm
03:50 AM 57.9°F14.4°C 53.1°F11.7°C 84% 11.2 mph WSW18.0 kmh WSW 20.8 mph33.5 kmh 29.95 in1014.2 mb 0.00 in0.0 mm 0.00 in0.0 mm 0.00 in0.0 mm
04:00 AM 57.9°F14.4°C 53.1°F11.7°C 84% 14.2 mph SSW22.9 kmh SSW 21.5 mph34.6 kmh 29.92 in1013.2 mb 0.00 in0.0 mm 0.00 in0.0 mm 0.00 in0.0 mm
04:10 AM 58.1°F14.5°C 53.3°F11.8°C 84% 12.5 mph W20.1 kmh W 19.3 mph31.1 kmh 29.89 in1012.2 mb 0.00 in0.0 mm 0.00 in0.0 mm 0.00 in0.0 mm
04:20 AM 58.1°F14.5°C 53.3°F11.8°C 84% 13.9 mph SW22.4 kmh SW 21.8 mph35.1 kmh 29.89 in1012.2 mb 0.00 in0.0 mm 0.00 in0.0 mm 0.00 in0.0 mm
04:30 AM 58.3°F14.6°C 53.5°F11.9°C 84% 13.5 mph SSW21.7 kmh SSW 22.5 mph36.2 kmh 29.89 in1012.2 mb 0.00 in0.0 mm 0.00 in0.0 mm 0.00 in0.0 mm
04:40 AM 58.3°F14.6°C 53.8°F12.1°C 85% 12.4 mph SSW20.0 kmh SSW 20.8 mph33.5 kmh 29.86 in1011.2 mb 0.00 in0.0 mm 0.00 in0.0 mm 0.00 in0.0 mm
04:50 AM 58.3°F14.6°C 53.5°F11.9°C 84% 15.6 mph W25.1 kmh W 20.8 mph33.5 kmh 29.86 in1011.2 mb 0.00 in0.0 mm 0.00 in0.0 mm 0.00 in0.0 mm
05:00 AM 58.5°F14.7°C 53.6°F12.0°C 84% 14.8 mph WSW23.8 kmh WSW 27.6 mph44.4 kmh 29.83 in1010.2 mb 0.00 in0.0 mm 0.00 in0.0 mm 0.00 in0.0 mm
05:10 AM 58.5°F14.7°C 53.6°F12.0°C 84% 16.6 mph W26.7 kmh W 27.2 mph43.8 kmh 29.80 in1009.1 mb 0.00 in0.0 mm 0.00 in0.0 mm 0.00 in0.0 mm
05:20 AM 58.6°F14.8°C 53.8°F12.1°C 84% 16.4 mph SW26.4 kmh SW 26.8 mph43.1 kmh 29.80 in1009.1 mb 0.00 in0.0 mm 0.00 in0.0 mm 0.00 in0.0 mm
05:30 AM 58.6°F14.8°C 54.1°F12.3°C 85% 15.4 mph WSW24.8 kmh WSW 24.3 mph39.1 kmh 29.83 in1010.2 mb 0.00 in0.0 mm 0.00 in0.0 mm 0.00 in0.0 mm
05:40 AM 58.1°F14.5°C 53.9°F12.2°C 86% 19.8 mph W31.9 kmh W 24.3 mph39.1 kmh 29.83 in1010.2 mb 0.00 in0.0 mm 0.00 in0.0 mm 0.00 in0.0 mm
05:50 AM 57.9°F14.4°C 54.4°F12.4°C 88% 30.0 mph E48.3 kmh E 36.9 mph59.4 kmh 29.83 in1010.2 mb 0.05 in1.3 mm 0.30 in7.6 mm 0.05 in1.3 mm
06:00 AM 57.7°F14.3°C 54.5°F12.5°C 89% 30.0 mph E48.3 kmh E 36.9 mph59.4 kmh 29.83 in1010.2 mb 0.05 in1.3 mm 0.00 in0.0 mm 0.05 in1.3 mm
06:10 AM 57.7°F14.3°C 54.8°F12.7°C 90% 30.0 mph E48.3 kmh E 36.9 mph59.4 kmh 29.80 in1009.1 mb 0.05 in1.3 mm 0.00 in0.0 mm 0.05 in1.3 mm
06:20 AM 57.7°F14.3°C 54.8°F12.7°C 90% 30.0 mph E48.3 kmh E 36.9 mph59.4 kmh 29.80 in1009.1 mb 0.05 in1.3 mm 0.00 in0.0 mm 0.05 in1.3 mm
06:30 AM 57.7°F14.3°C 55.1°F12.8°C 91% 30.0 mph E48.3 kmh E 36.9 mph59.4 kmh 29.80 in1009.1 mb 0.05 in1.3 mm 0.00 in0.0 mm 0.05 in1.3 mm
06:40 AM 57.7°F14.3°C 55.1°F12.8°C 91% 30.0 mph E48.3 kmh E 36.9 mph59.4 kmh 29.80 in1009.1 mb 0.05 in1.3 mm 0.00 in0.0 mm 0.05 in1.3 mm
06:50 AM 57.7°F14.3°C 55.4°F13.0°C 92% 13.7 mph NW22.0 kmh NW 16.8 mph27.0 kmh 29.80 in1009.1 mb 0.00 in0.0 mm 0.00 in0.0 mm 0.05 in1.3 mm
07:00 AM 57.9°F14.4°C 55.6°F13.1°C 92% 30.6 mph W49.2 kmh W 41.5 mph66.8 kmh 29.77 in1008.1 mb 0.00 in0.0 mm 0.00 in0.0 mm 0.05 in1.3 mm
07:10 AM 57.9°F14.4°C 55.6°F13.1°C 92% 17.2 mph WNW27.7 kmh WNW 41.5 mph66.8 kmh 29.77 in1008.1 mb 0.00 in0.0 mm 0.00 in0.0 mm 0.05 in1.3 mm
07:20 AM 57.9°F14.4°C 55.9°F13.3°C 93% 10.2 mph NNW16.4 kmh NNW 12.5 mph20.1 kmh 29.77 in1008.1 mb 0.00 in0.0 mm 0.00 in0.0 mm 0.05 in1.3 mm
07:30 AM 58.1°F14.5°C 56.1°F13.4°C 93% 13.1 mph NNW21.1 kmh NNW 16.1 mph25.9 kmh 29.77 in1008.1 mb 0.05 in1.3 mm 0.30 in7.6 mm 0.09 in2.3 mm
07:40 AM 58.3°F14.6°C 56.3°F13.5°C 93% 5.9 mph WNW9.5 kmh WNW 16.1 mph25.9 kmh 29.77 in1008.1 mb 0.05 in1.3 mm 0.00 in0.0 mm 0.09 in2.3 mm
07:50 AM 58.3°F14.6°C 56.3°F13.5°C 93% 4.7 mph W7.6 kmh W 5.7 mph9.2 kmh 29.77 in1008.1 mb 0.05 in1.3 mm 0.00 in0.0 mm 0.09 in2.3 mm
08:00 AM 58.3°F14.6°C 56.3°F13.5°C 93% 4.7 mph W7.6 kmh W 5.7 mph9.2 kmh 29.77 in1008.1 mb 0.05 in1.3 mm 0.00 in0.0 mm 0.09 in2.3 mm
08:10 AM 58.5°F14.7°C 56.4°F13.6°C 93% 4.7 mph W7.6 kmh W 5.7 mph9.2 kmh 29.77 in1008.1 mb 0.05 in1.3 mm 0.00 in0.0 mm 0.09 in2.3 mm
08:20 AM 58.5°F14.7°C 56.4°F13.6°C 93% 4.7 mph W7.6 kmh W 5.7 mph9.2 kmh 29.77 in1008.1 mb 0.05 in1.3 mm 0.00 in0.0 mm 0.09 in2.3 mm
08:30 AM 58.3°F14.6°C 56.3°F13.5°C 93% 16.0 mph W25.7 kmh W 19.7 mph31.7 kmh 29.77 in1008.1 mb 0.05 in1.3 mm 0.00 in0.0 mm 0.14 in3.6 mm
08:40 AM 57.6°F14.2°C 55.3°F12.9°C 92% 15.7 mph W25.3 kmh W 19.7 mph31.7 kmh 29.77 in1008.1 mb 0.05 in1.3 mm 0.00 in0.0 mm 0.14 in3.6 mm
08:50 AM 57.2°F14.0°C 54.9°F12.7°C 92% 13.1 mph W21.1 kmh W 16.1 mph25.9 kmh 29.77 in1008.1 mb 0.05 in1.3 mm 0.00 in0.0 mm 0.14 in3.6 mm
09:00 AM 57.0°F13.9°C 54.7°F12.6°C 92% 13.1 mph W21.1 kmh W 16.1 mph25.9 kmh 29.77 in1008.1 mb 0.05 in1.3 mm 0.00 in0.0 mm 0.14 in3.6 mm
09:10 AM 56.8°F13.8°C 54.2°F12.3°C 91% 13.1 mph W21.1 kmh W 16.1 mph25.9 kmh 29.77 in1008.1 mb 0.05 in1.3 mm 0.00 in0.0 mm 0.14 in3.6 mm
09:20 AM 56.8°F13.8°C 53.9°F12.2°C 90% 13.1 mph W21.1 kmh W 16.1 mph25.9 kmh 29.77 in1008.1 mb 0.05 in1.3 mm 0.00 in0.0 mm 0.14 in3.6 mm
09:30 AM 56.7°F13.7°C 53.1°F11.7°C 88% 13.1 mph W21.1 kmh W 16.1 mph25.9 kmh 29.80 in1009.1 mb 0.00 in0.0 mm 0.00 in0.0 mm 0.14 in3.6 mm
09:40 AM 56.8°F13.8°C 52.4°F11.3°C 85% 10.5 mph W16.9 kmh W 12.9 mph20.8 kmh 29.80 in1009.1 mb 0.00 in0.0 mm 0.00 in0.0 mm 0.14 in3.6 mm
09:50 AM 57.0°F13.9°C 51.9°F11.1°C 83% 10.5 mph W16.9 kmh W 12.9 mph20.8 kmh 29.80 in1009.1 mb 0.00 in0.0 mm 0.00 in0.0 mm 0.14 in3.6 mm
10:00 AM 57.2°F14.0°C 51.1°F10.6°C 80% 6.0 mph NW9.7 kmh NW 12.9 mph20.8 kmh 29.80 in1009.1 mb 0.00 in0.0 mm 0.00 in0.0 mm 0.14 in3.6 mm
10:10 AM 57.6°F14.2°C 51.4°F10.8°C 80% 5.5 mph NW8.9 kmh NW 10.0 mph16.1 kmh 29.80 in1009.1 mb 0.00 in0.0 mm 0.00 in0.0 mm 0.14 in3.6 mm
10:20 AM 57.9°F14.4°C 51.1°F10.6°C 78% 10.6 mph W17.1 kmh W 20.0 mph32.2 kmh 29.80 in1009.1 mb 0.00 in0.0 mm 0.00 in0.0 mm 0.14 in3.6 mm
10:30 AM 58.1°F14.5°C 49.9°F9.9°C 74% 12.1 mph WNW19.5 kmh WNW 32.9 mph52.9 kmh 29.80 in1009.1 mb 0.00 in0.0 mm 0.00 in0.0 mm 0.14 in3.6 mm
10:40 AM 58.5°F14.7°C 49.8°F9.9°C 73% 11.6 mph W18.7 kmh W 27.2 mph43.8 kmh 29.80 in1009.1 mb 0.00 in0.0 mm 0.00 in0.0 mm 0.14 in3.6 mm
10:50 AM 59.2°F15.1°C 51.3°F10.7°C 75% 9.6 mph W15.4 kmh W 16.8 mph27.0 kmh 29.80 in1009.1 mb 0.00 in0.0 mm 0.00 in0.0 mm 0.14 in3.6 mm
11:00 AM 59.5°F15.3°C 51.6°F10.9°C 75% 6.2 mph WSW10.0 kmh WSW 12.2 mph19.6 kmh 29.80 in1009.1 mb 0.00 in0.0 mm 0.00 in0.0 mm 0.14 in3.6 mm
11:10 AM 60.1°F15.6°C 51.0°F10.6°C 72% 8.3 mph W13.4 kmh W 17.2 mph27.7 kmh 29.80 in1009.1 mb 0.00 in0.0 mm 0.00 in0.0 mm 0.14 in3.6 mm
11:20 AM 59.2°F15.1°C 49.4°F9.7°C 70% 8.1 mph W13.0 kmh W 10.0 mph16.1 kmh 29.80 in1009.1 mb 0.00 in0.0 mm 0.00 in0.0 mm 0.14 in3.6 mm
11:30 AM 58.1°F14.5°C 48.4°F9.1°C 70% 8.1 mph W13.0 kmh W 10.0 mph16.1 kmh 29.80 in1009.1 mb 0.00 in0.0 mm 0.00 in0.0 mm 0.14 in3.6 mm
11:40 AM 58.1°F14.5°C 48.4°F9.1°C 70% 8.1 mph W13.0 kmh W 10.0 mph16.1 kmh 29.80 in1009.1 mb 0.00 in0.0 mm 0.00 in0.0 mm 0.14 in3.6 mm
11:50 AM 58.1°F14.5°C 46.8°F8.2°C 66% 20.5 mph NW33.0 kmh NW 34.0 mph54.7 kmh 29.80 in1009.1 mb 0.00 in0.0 mm 0.00 in0.0 mm 0.14 in3.6 mm
12:00 PM 58.5°F14.7°C 47.9°F8.8°C 68% 10.8 mph NW17.4 kmh NW 21.1 mph34.0 kmh 29.83 in1010.2 mb 0.00 in0.0 mm 0.00 in0.0 mm 0.14 in3.6 mm
12:10 PM 58.3°F14.6°C 47.0°F8.3°C 66% 8.4 mph W13.5 kmh W 25.4 mph40.9 kmh 29.80 in1009.1 mb 0.00 in0.0 mm 0.00 in0.0 mm 0.14 in3.6 mm
12:20 PM 58.3°F14.6°C 47.0°F8.3°C 66% 7.5 mph W12.1 kmh W 10.0 mph16.1 kmh 29.80 in1009.1 mb 0.00 in0.0 mm 0.00 in0.0 mm 0.14 in3.6 mm
12:30 PM 58.5°F14.7°C 46.7°F8.2°C 65% 16.7 mph W26.9 kmh W 36.5 mph58.7 kmh 29.80 in1009.1 mb 0.00 in0.0 mm 0.00 in0.0 mm 0.14 in3.6 mm
12:40 PM 58.8°F14.9°C 47.5°F8.6°C 66% 10.7 mph WNW17.2 kmh WNW 36.5 mph58.7 kmh 29.80 in1009.1 mb 0.00 in0.0 mm 0.00 in0.0 mm 0.14 in3.6 mm
12:50 PM 58.8°F14.9°C 47.5°F8.6°C 66% 9.0 mph W14.5 kmh W 11.8 mph19.0 kmh 29.80 in1009.1 mb 0.00 in0.0 mm 0.00 in0.0 mm 0.14 in3.6 mm
01:00 PM 58.8°F14.9°C 46.7°F8.2°C 64% 9.6 mph W15.4 kmh W 11.8 mph19.0 kmh 29.83 in1010.2 mb 0.00 in0.0 mm 0.00 in0.0 mm 0.14 in3.6 mm
01:10 PM 58.5°F14.7°C 45.5°F7.5°C 62% 8.4 mph E13.5 kmh E 10.4 mph16.7 kmh 29.80 in1009.1 mb 0.00 in0.0 mm 0.00 in0.0 mm 0.14 in3.6 mm
01:20 PM 58.3°F14.6°C 44.9°F7.2°C 61% 7.6 mph E12.2 kmh E 10.4 mph16.7 kmh 29.80 in1009.1 mb 0.00 in0.0 mm 0.00 in0.0 mm 0.14 in3.6 mm
01:30 PM 57.9°F14.4°C 45.0°F7.2°C 62% 16.6 mph W26.7 kmh W 29.0 mph46.7 kmh 29.83 in1010.2 mb 0.00 in0.0 mm 0.00 in0.0 mm 0.14 in3.6 mm
01:40 PM 57.7°F14.3°C 44.4°F6.9°C 61% 23.6 mph W38.0 kmh W 29.0 mph46.7 kmh 29.80 in1009.1 mb 0.00 in0.0 mm 0.00 in0.0 mm 0.14 in3.6 mm
01:50 PM 57.6°F14.2°C 44.6°F7.0°C 62% 23.6 mph W38.0 kmh W 29.0 mph46.7 kmh 29.80 in1009.1 mb 0.00 in0.0 mm 0.00 in0.0 mm 0.14 in3.6 mm
02:00 PM 57.6°F14.2°C 44.6°F7.0°C 62% 23.6 mph W38.0 kmh W 29.0 mph46.7 kmh 29.83 in1010.2 mb 0.00 in0.0 mm 0.00 in0.0 mm 0.14 in3.6 mm
02:10 PM 57.4°F14.1°C 42.7°F5.9°C 58% 23.6 mph W38.0 kmh W 29.0 mph46.7 kmh 29.83 in1010.2 mb 0.00 in0.0 mm 0.00 in0.0 mm 0.14 in3.6 mm
02:20 PM 57.2°F14.0°C 43.0°F6.1°C 59% 23.6 mph W38.0 kmh W 29.0 mph46.7 kmh 29.83 in1010.2 mb 0.00 in0.0 mm 0.00 in0.0 mm 0.14 in3.6 mm
02:30 PM 57.0°F13.9°C 42.8°F6.0°C 59% 11.1 mph W17.9 kmh W 13.6 mph21.9 kmh 29.83 in1010.2 mb 0.00 in0.0 mm 0.00 in0.0 mm 0.14 in3.6 mm
02:40 PM 56.8°F13.8°C 42.2°F5.7°C 58% 12.0 mph W19.3 kmh W 25.4 mph40.9 kmh 29.83 in1010.2 mb 0.00 in0.0 mm 0.00 in0.0 mm 0.14 in3.6 mm
02:50 PM 56.8°F13.8°C 42.7°F5.9°C 59% 6.0 mph NNW9.7 kmh NNW 7.9 mph12.7 kmh 29.83 in1010.2 mb 0.00 in0.0 mm 0.00 in0.0 mm 0.14 in3.6 mm
03:00 PM 56.7°F13.7°C 42.9°F6.1°C 60% 6.4 mph NNW10.3 kmh NNW 7.9 mph12.7 kmh 29.83 in1010.2 mb 0.00 in0.0 mm 0.00 in0.0 mm 0.14 in3.6 mm
03:10 PM 56.7°F13.7°C 43.4°F6.3°C 61% 6.4 mph NNW10.3 kmh NNW 7.9 mph12.7 kmh 29.83 in1010.2 mb 0.00 in0.0 mm 0.00 in0.0 mm 0.14 in3.6 mm
03:20 PM 56.8°F13.8°C 43.5°F6.4°C 61% 6.4 mph NNW10.3 kmh NNW 7.9 mph12.7 kmh 29.83 in1010.2 mb 0.00 in0.0 mm 0.00 in0.0 mm 0.14 in3.6 mm
03:30 PM 56.7°F13.7°C 43.4°F6.3°C 61% 6.4 mph NNW10.3 kmh NNW 7.9 mph12.7 kmh 29.83 in1010.2 mb 0.00 in0.0 mm 0.00 in0.0 mm 0.14 in3.6 mm
03:40 PM 56.3°F13.5°C 43.0°F6.1°C 61% 6.4 mph NNW10.3 kmh NNW 7.9 mph12.7 kmh 29.83 in1010.2 mb 0.00 in0.0 mm 0.00 in0.0 mm 0.14 in3.6 mm
03:50 PM 56.1°F13.4°C 42.8°F6.0°C 61% 6.4 mph NNW10.3 kmh NNW 7.9 mph12.7 kmh 29.83 in1010.2 mb 0.00 in0.0 mm 0.00 in0.0 mm 0.14 in3.6 mm
04:00 PM 56.1°F13.4°C 42.8°F6.0°C 61% 6.4 mph NNW10.3 kmh NNW 7.9 mph12.7 kmh 29.80 in1009.1 mb 0.00 in0.0 mm 0.00 in0.0 mm 0.14 in3.6 mm
04:10 PM 56.1°F13.4°C 43.3°F6.3°C 62% 6.4 mph NNW10.3 kmh NNW 7.9 mph12.7 kmh 29.83 in1010.2 mb 0.00 in0.0 mm 0.00 in0.0 mm 0.14 in3.6 mm
04:20 PM 56.3°F13.5°C 43.4°F6.3°C 62% 6.4 mph NNW10.3 kmh NNW 7.9 mph12.7 kmh 29.83 in1010.2 mb 0.00 in0.0 mm 0.00 in0.0 mm 0.14 in3.6 mm
04:30 PM 56.1°F13.4°C 43.3°F6.3°C 62% 6.4 mph NNW10.3 kmh NNW 7.9 mph12.7 kmh 29.80 in1009.1 mb 0.00 in0.0 mm 0.00 in0.0 mm 0.14 in3.6 mm
04:40 PM 56.1°F13.4°C 43.7°F6.5°C 63% 6.4 mph NNW10.3 kmh NNW 7.9 mph12.7 kmh 29.80 in1009.1 mb 0.00 in0.0 mm 0.00 in0.0 mm 0.14 in3.6 mm
04:50 PM 56.1°F13.4°C 43.3°F6.3°C 62% 20.1 mph W32.3 kmh W 24.7 mph39.8 kmh 29.80 in1009.1 mb 0.00 in0.0 mm 0.00 in0.0 mm 0.14 in3.6 mm
05:00 PM 55.9°F13.3°C 43.1°F6.2°C 62% 18.7 mph W30.1 kmh W 24.7 mph39.8 kmh 29.80 in1009.1 mb 0.00 in0.0 mm 0.00 in0.0 mm 0.14 in3.6 mm
05:10 PM 55.9°F13.3°C 43.5°F6.4°C 63% 11.6 mph NW18.7 kmh NW 19.7 mph31.7 kmh 29.80 in1009.1 mb 0.00 in0.0 mm 0.00 in0.0 mm 0.14 in3.6 mm
05:20 PM 55.9°F13.3°C 43.5°F6.4°C 63% 11.6 mph NW18.7 kmh NW 14.3 mph23.0 kmh 29.80 in1009.1 mb 0.00 in0.0 mm 0.00 in0.0 mm 0.14 in3.6 mm
05:30 PM 55.8°F13.2°C 43.8°F6.6°C 64% 11.6 mph NW18.7 kmh NW 14.3 mph23.0 kmh 29.80 in1009.1 mb 0.00 in0.0 mm 0.00 in0.0 mm 0.14 in3.6 mm
05:40 PM 55.6°F13.1°C 44.4°F6.9°C 66% 11.6 mph NW18.7 kmh NW 14.3 mph23.0 kmh 29.80 in1009.1 mb 0.00 in0.0 mm 0.00 in0.0 mm 0.14 in3.6 mm
05:50 PM 55.4°F13.0°C 44.6°F7.0°C 67% 11.6 mph NW18.7 kmh NW 14.3 mph23.0 kmh 29.80 in1009.1 mb 0.00 in0.0 mm 0.00 in0.0 mm 0.14 in3.6 mm
06:00 PM 55.4°F13.0°C 44.2°F6.8°C 66% 11.6 mph NW18.7 kmh NW 14.3 mph23.0 kmh 29.80 in1009.1 mb 0.00 in0.0 mm 0.00 in0.0 mm 0.14 in3.6 mm
06:10 PM 55.4°F13.0°C 44.6°F7.0°C 67% 11.6 mph NW18.7 kmh NW 14.3 mph23.0 kmh 29.80 in1009.1 mb 0.00 in0.0 mm 0.00 in0.0 mm 0.14 in3.6 mm
06:20 PM 55.4°F13.0°C 45.0°F7.2°C 68% 11.6 mph NW18.7 kmh NW 14.3 mph23.0 kmh 29.80 in1009.1 mb 0.00 in0.0 mm 0.00 in0.0 mm 0.14 in3.6 mm
06:30 PM 55.4°F13.0°C 45.4°F7.4°C 69% 7.6 mph W12.2 kmh W 10.4 mph16.7 kmh 29.80 in1009.1 mb 0.00 in0.0 mm 0.00 in0.0 mm 0.14 in3.6 mm
06:40 PM 55.2°F12.9°C 45.2°F7.3°C 69% 7.0 mph W11.3 kmh W 8.6 mph13.8 kmh 29.80 in1009.1 mb 0.00 in0.0 mm 0.00 in0.0 mm 0.14 in3.6 mm
06:50 PM 55.2°F12.9°C 44.8°F7.1°C 68% 7.0 mph W11.3 kmh W 8.6 mph13.8 kmh 29.80 in1009.1 mb 0.00 in0.0 mm 0.00 in0.0 mm 0.14 in3.6 mm
07:00 PM 55.0°F12.8°C 44.7°F7.1°C 68% 7.0 mph W11.3 kmh W 8.6 mph13.8 kmh 29.80 in1009.1 mb 0.00 in0.0 mm 0.00 in0.0 mm 0.14 in3.6 mm
07:10 PM 55.2°F12.9°C 44.8°F7.1°C 68% 7.0 mph W11.3 kmh W 8.6 mph13.8 kmh 29.80 in1009.1 mb 0.00 in0.0 mm 0.00 in0.0 mm 0.14 in3.6 mm
07:20 PM 55.2°F12.9°C 45.2°F7.3°C 69% 7.0 mph W11.3 kmh W 8.6 mph13.8 kmh 29.80 in1009.1 mb 0.00 in0.0 mm 0.00 in0.0 mm 0.14 in3.6 mm
07:30 PM 55.2°F12.9°C 45.2°F7.3°C 69% 7.0 mph W11.3 kmh W 8.6 mph13.8 kmh 29.80 in1009.1 mb 0.00 in0.0 mm 0.00 in0.0 mm 0.14 in3.6 mm
07:40 PM 55.4°F13.0°C 45.4°F7.4°C 69% 10.5 mph W16.9 kmh W 12.9 mph20.8 kmh 29.80 in1009.1 mb 0.00 in0.0 mm 0.00 in0.0 mm 0.14 in3.6 mm
07:50 PM 55.2°F12.9°C 45.6°F7.6°C 70% 10.5 mph W16.9 kmh W 12.9 mph20.8 kmh 29.80 in1009.1 mb 0.00 in0.0 mm 0.00 in0.0 mm 0.14 in3.6 mm
08:00 PM 55.2°F12.9°C 45.6°F7.6°C 70% 10.5 mph W16.9 kmh W 12.9 mph20.8 kmh 29.80 in1009.1 mb 0.00 in0.0 mm 0.00 in0.0 mm 0.14 in3.6 mm
08:10 PM 55.2°F12.9°C 45.6°F7.6°C 70% 10.5 mph W16.9 kmh W 12.9 mph20.8 kmh 29.80 in1009.1 mb 0.00 in0.0 mm 0.00 in0.0 mm 0.14 in3.6 mm
08:20 PM 55.4°F13.0°C 45.8°F7.7°C 70% 10.5 mph W16.9 kmh W 12.9 mph20.8 kmh 29.80 in1009.1 mb 0.00 in0.0 mm 0.00 in0.0 mm 0.14 in3.6 mm
08:30 PM 55.4°F13.0°C 45.8°F7.7°C 70% 10.5 mph W16.9 kmh W 12.9 mph20.8 kmh 29.80 in1009.1 mb 0.00 in0.0 mm 0.00 in0.0 mm 0.14 in3.6 mm
08:40 PM 55.4°F13.0°C 45.4°F7.4°C 69% 10.5 mph W16.9 kmh W 12.9 mph20.8 kmh 29.80 in1009.1 mb 0.00 in0.0 mm 0.00 in0.0 mm 0.14 in3.6 mm
08:50 PM 55.4°F13.0°C 45.8°F7.7°C 70% 8.1 mph W13.0 kmh W 10.0 mph16.1 kmh 29.80 in1009.1 mb 0.00 in0.0 mm 0.00 in0.0 mm 0.14 in3.6 mm
09:00 PM 55.2°F12.9°C 45.6°F7.6°C 70% 8.1 mph W13.0 kmh W 10.0 mph16.1 kmh 29.80 in1009.1 mb 0.00 in0.0 mm 0.00 in0.0 mm 0.14 in3.6 mm
09:10 PM 55.2°F12.9°C 45.2°F7.3°C 69% 8.1 mph W13.0 kmh W 10.0 mph16.1 kmh 29.80 in1009.1 mb 0.00 in0.0 mm 0.00 in0.0 mm 0.14 in3.6 mm
09:20 PM 55.4°F13.0°C 45.4°F7.4°C 69% 8.1 mph W13.0 kmh W 10.0 mph16.1 kmh 29.80 in1009.1 mb 0.00 in0.0 mm 0.00 in0.0 mm 0.14 in3.6 mm
09:30 PM 55.4°F13.0°C 45.4°F7.4°C 69% 8.1 mph W13.0 kmh W 10.0 mph16.1 kmh 29.80 in1009.1 mb 0.00 in0.0 mm 0.00 in0.0 mm 0.14 in3.6 mm
09:40 PM 55.4°F13.0°C 45.4°F7.4°C 69% 8.1 mph W13.0 kmh W 10.0 mph16.1 kmh 29.80 in1009.1 mb 0.00 in0.0 mm 0.00 in0.0 mm 0.14 in3.6 mm
09:50 PM 55.4°F13.0°C 45.4°F7.4°C 69% 8.1 mph W13.0 kmh W 10.0 mph16.1 kmh 29.80 in1009.1 mb 0.00 in0.0 mm 0.00 in0.0 mm 0.14 in3.6 mm
10:00 PM 55.6°F13.1°C 45.6°F7.6°C 69% 8.1 mph W13.0 kmh W 10.0 mph16.1 kmh 29.80 in1009.1 mb 0.00 in0.0 mm 0.00 in0.0 mm 0.14 in3.6 mm
10:10 PM 55.6°F13.1°C 45.2°F7.3°C 68% 8.1 mph W13.0 kmh W 10.0 mph16.1 kmh 29.80 in1009.1 mb 0.00 in0.0 mm 0.00 in0.0 mm 0.14 in3.6 mm
10:20 PM 55.6°F13.1°C 45.2°F7.3°C 68% 8.1 mph W13.0 kmh W 10.0 mph16.1 kmh 29.80 in1009.1 mb 0.00 in0.0 mm 0.00 in0.0 mm 0.14 in3.6 mm
10:30 PM 55.4°F13.0°C 44.6°F7.0°C 67% 8.4 mph NW13.5 kmh NW 10.4 mph16.7 kmh 29.80 in1009.1 mb 0.00 in0.0 mm 0.00 in0.0 mm 0.14 in3.6 mm
10:40 PM 55.4°F13.0°C 44.6°F7.0°C 67% 8.4 mph NW13.5 kmh NW 10.4 mph16.7 kmh 29.80 in1009.1 mb 0.00 in0.0 mm 0.00 in0.0 mm 0.14 in3.6 mm
10:50 PM 55.6°F13.1°C 45.2°F7.3°C 68% 8.4 mph NW13.5 kmh NW 10.4 mph16.7 kmh 29.80 in1009.1 mb 0.00 in0.0 mm 0.00 in0.0 mm 0.14 in3.6 mm
11:00 PM 55.6°F13.1°C 45.2°F7.3°C 68% 8.4 mph NW13.5 kmh NW 10.4 mph16.7 kmh 29.80 in1009.1 mb 0.00 in0.0 mm 0.00 in0.0 mm 0.10 in2.5 mm
11:10 PM 55.6°F13.1°C 44.8°F7.1°C 67% 8.4 mph NW13.5 kmh NW 10.4 mph16.7 kmh 29.80 in1009.1 mb 0.00 in0.0 mm 0.00 in0.0 mm 0.10 in2.5 mm
11:20 PM 55.6°F13.1°C 44.0°F6.7°C 65% 8.4 mph NW13.5 kmh NW 10.4 mph16.7 kmh 29.80 in1009.1 mb 0.00 in0.0 mm 0.00 in0.0 mm 0.10 in2.5 mm
11:30 PM 55.4°F13.0°C 43.4°F6.3°C 64% 10.2 mph W16.4 kmh W 12.5 mph20.1 kmh 29.80 in1009.1 mb 0.00 in0.0 mm 0.00 in0.0 mm 0.10 in2.5 mm
11:40 PM 55.4°F13.0°C 43.8°F6.6°C 65% 10.2 mph W16.4 kmh W 12.5 mph20.1 kmh 29.83 in1010.2 mb 0.00 in0.0 mm 0.00 in0.0 mm 0.10 in2.5 mm
11:50 PM 55.4°F13.0°C 44.2°F6.8°C 66% 10.2 mph W16.4 kmh W 12.5 mph20.1 kmh 29.83 in1010.2 mb 0.00 in0.0 mm 0.00 in0.0 mm 0.10 in2.5 mm